ADDS TAF Board (Experimental) INFO Settings

IDs: Format: Expanded Condensed

KSTL - St Louis/Lambert Int, MO, US

Issued at 0530 UTC 27 Mar 2015
Updated at: 0655 UTC 27 Mar 2015
Time0651Z 27/07Z 27/08Z 27/09Z 27/10Z 27/11Z 27/12Z 27/13Z 27/14Z 27/15Z 27/16Z 27/17Z 27/18Z 27/19Z
Type OBS PRVL PRVL PRVL PRVL PRVL PRVL PRVL PRVL PRVL PRVL PRVL PRVL PRVL
VIS 10 >6 >6 >6 >6 >6 >6 >6 >6 >6 >6 >6 >6 >6
CIG 110 120 120 120 120 120 120 120 120 40 40 40 40 40
Cover BKN BKN BKN BKN BKN BKN BKN BKN BKN BKN BKN BKN BKN BKN
FltCat VFR VFR VFR VFR VFR VFR VFR VFR VFR VFR VFR VFR VFR VFR
WX -- -- -- -- -- -- -- -- -- -- -- -- -- --
WDir 20 VRB VRB VRB VRB VRB VRB VRB VRB 350 350 350 350 350
WSpd 8 5 5 5 5 5 5 5 5 12 12 12 12 12
WGst -- -- -- -- -- -- -- -- -- -- -- -- -- --
R06/24
XWnd 5 VRB VRB VRB VRB VRB VRB VRB VRB 11 11 11 11 11
HWnd 6 VRB VRB VRB VRB VRB VRB VRB VRB 4 4 4 4 4
R11/29
XWnd 8 VRB VRB VRB VRB VRB VRB VRB VRB 9 9 9 9 9
HWnd -2 VRB VRB VRB VRB VRB VRB VRB VRB -8 -8 -8 -8 -8
R12/30
XWnd 8 VRB VRB VRB VRB VRB VRB VRB VRB 9 9 9 9 9
HWnd -2 VRB VRB VRB VRB VRB VRB VRB VRB -8 -8 -8 -8 -8

NOTE: TEMPO conditions in [brackets]. Keep in mind TEMPO conditions might be better (lower impact) than prevailing conditions.

Raw TAF
KSTL 270530Z 2706/2812 VRB05KT P6SM SCT040 BKN120
  FM271500 35012KT P6SM BKN040
  FM280000 05005KT P6SM SCT100


Raw METAR
KSTL 270651Z 02008KT 10SM BKN110 BKN250 05/M02 A3006 RMK AO2 SLP185 T00501022
KSTL 270551Z 35007KT 10SM SCT120 BKN250 06/M03 A3005 RMK AO2 SLP179 T00561028 10089 20033 401060033 58008
KSTL 270451Z 30003KT 10SM FEW150 BKN250 04/M02 A3006 RMK AO2 SLP185 T00441022
KSTL 270351Z 29005KT 10SM FEW150 SCT250 05/M03 A3007 RMK AO2 SLP188 T00501028

METAR Board
Radar Display
Forecast Discussion

TAF Board Legend

Potential Impact
Threat None Slight Moderate High
Visibility (sm) ≥5.1 5.1>X≥3 3>X≥1 <1
Ceiling (100 ft) ≥30.1 30.1>X≥10 10>X≥5 <5
Wind Speed (kt) <10 10≤X<20 20≤X<30 ≥30
Wind Gust (kt) <15 15≤X<25 25≤X<35 ≥35
Weather No Wx Reported VCTS,-TS,-FZRA,SN TS,FZRA +TS,+FZRA,+SN